createdAt,value
2019-05-05T00:02:04.480Z,86.80
2019-05-05T00:04:54.408Z,86.30
2019-05-05T00:07:25.376Z,86.30
2019-05-05T00:09:55.135Z,85.20
2019-05-05T00:12:28.608Z,87.40
2019-05-05T00:15:10.919Z,86.50
2019-05-05T00:17:39.685Z,85.10
2019-05-05T00:20:08.722Z,85.60
2019-05-05T00:22:37.455Z,83.80
2019-05-05T00:25:08.095Z,84.10
2019-05-05T00:27:36.701Z,84.80
2019-05-05T00:30:08.389Z,87.00
2019-05-05T00:32:37.044Z,84.40
2019-05-05T00:35:07.159Z,88.10
2019-05-05T00:37:35.789Z,88.00
2019-05-05T00:40:06.389Z,88.70
2019-05-05T00:42:35.649Z,91.00
2019-05-05T00:45:06.742Z,91.00
2019-05-05T00:47:54.290Z,89.60
2019-05-05T00:50:25.103Z,92.40
2019-05-05T00:52:55.045Z,92.70
2019-05-05T00:55:24.429Z,92.20
2019-05-05T00:57:54.649Z,92.10
2019-05-05T01:00:29.649Z,92.30
2019-05-05T01:02:58.339Z,92.10
2019-05-05T01:05:40.583Z,92.20
2019-05-05T01:08:11.421Z,92.10
2019-05-05T01:10:40.006Z,92.00
2019-05-05T01:13:08.698Z,92.40
2019-05-05T01:15:37.462Z,92.90
2019-05-05T01:18:06.355Z,92.20
2019-05-05T01:20:35.093Z,91.70
2019-05-05T01:23:04.402Z,92.20
2019-05-05T01:25:34.692Z,91.80
2019-05-05T01:28:05.138Z,92.60
2019-05-05T01:30:35.430Z,92.70
2019-05-05T01:33:09.074Z,90.90
2019-05-05T01:35:37.801Z,91.80
2019-05-05T01:38:11.246Z,91.90
2019-05-05T01:40:47.494Z,92.30
2019-05-05T01:43:16.045Z,93.00
2019-05-05T01:45:45.325Z,91.30
2019-05-05T01:48:14.359Z,90.60
2019-05-05T01:50:43.001Z,88.70
2019-05-05T01:53:11.656Z,89.80
2019-05-05T01:55:40.714Z,90.40
2019-05-05T01:58:09.361Z,89.40
2019-05-05T02:00:38.010Z,90.40
2019-05-05T02:03:06.744Z,91.40
2019-05-05T02:05:35.405Z,90.40
2019-05-05T02:08:04.909Z,89.30
2019-05-05T02:10:34.875Z,88.90
2019-05-05T02:13:04.634Z,88.10
2019-05-05T02:15:34.477Z,89.00
2019-05-05T02:18:04.565Z,88.90
2019-05-05T02:20:41.836Z,89.10
2019-05-05T02:23:12.124Z,88.60
2019-05-05T02:25:41.151Z,88.30
2019-05-05T02:28:09.877Z,88.30
2019-05-05T02:30:57.217Z,88.60
2019-05-05T02:33:28.819Z,88.70
2019-05-05T02:36:01.100Z,86.90
2019-05-05T02:38:35.523Z,86.90
2019-05-05T02:41:06.296Z,87.30
2019-05-05T02:43:39.354Z,90.00
2019-05-05T02:46:25.381Z,89.50
2019-05-05T02:48:58.252Z,89.50
2019-05-05T02:51:30.803Z,87.10
2019-05-05T02:54:05.580Z,89.00
2019-05-05T02:56:43.519Z,90.30
2019-05-05T02:59:23.682Z,90.80
2019-05-05T03:02:00.036Z,90.40
2019-05-05T03:04:35.969Z,88.00
2019-05-05T03:07:07.832Z,86.50
2019-05-05T03:09:40.604Z,86.50
2019-05-05T03:12:14.905Z,85.90
2019-05-05T03:14:47.144Z,87.50
2019-05-05T03:17:20.363Z,89.20
2019-05-05T03:19:53.405Z,87.70
2019-05-05T03:22:27.873Z,87.80
2019-05-05T03:25:00.647Z,85.60
2019-05-05T03:27:35.202Z,86.10
2019-05-05T03:30:08.371Z,87.00
2019-05-05T03:32:46.268Z,85.80
2019-05-05T03:35:18.688Z,85.40
2019-05-05T03:37:50.199Z,85.10
2019-05-05T03:40:23.868Z,87.10
2019-05-05T03:42:56.503Z,86.00
2019-05-05T03:45:44.517Z,86.20
2019-05-05T03:48:15.411Z,87.50
2019-05-05T03:50:47.137Z,88.10
2019-05-05T03:53:19.222Z,87.50
2019-05-05T03:55:54.508Z,88.00
2019-05-05T03:58:25.600Z,89.30
2019-05-05T04:01:16.756Z,88.30
2019-05-05T04:03:48.431Z,88.40
2019-05-05T04:06:24.838Z,90.50
2019-05-05T04:08:55.599Z,90.20
2019-05-05T04:11:28.427Z,89.80
2019-05-05T04:14:01.318Z,88.60
2019-05-05T04:16:53.566Z,90.20
2019-05-05T04:19:26.342Z,91.40
2019-05-05T04:21:58.537Z,91.40
2019-05-05T04:24:36.804Z,92.00
2019-05-05T04:27:05.615Z,91.70
2019-05-05T04:29:34.632Z,91.70
2019-05-05T04:32:04.628Z,92.20
2019-05-05T04:34:34.718Z,92.30
2019-05-05T04:37:04.134Z,93.00
2019-05-05T04:39:34.122Z,92.70
2019-05-05T04:42:01.714Z,92.40
2019-05-05T04:44:30.281Z,92.10
2019-05-05T04:47:00.649Z,92.50
2019-05-05T04:49:44.392Z,92.50
2019-05-05T04:52:17.314Z,93.00
2019-05-05T04:54:47.528Z,92.80
2019-05-05T04:57:16.223Z,94.60
2019-05-05T04:59:45.505Z,94.80
2019-05-05T05:02:18.497Z,94.20
2019-05-05T05:05:06.657Z,94.10
2019-05-05T05:07:35.225Z,95.50
2019-05-05T05:10:07.898Z,95.30
2019-05-05T05:12:36.486Z,95.60
2019-05-05T05:15:05.907Z,96.60
2019-05-05T05:17:35.391Z,97.50
2019-05-05T05:20:04.734Z,97.20
2019-05-05T05:22:33.502Z,96.50
2019-05-05T05:25:04.269Z,97.80
2019-05-05T05:27:33.587Z,97.10
2019-05-05T05:30:04.532Z,98.10
2019-05-05T05:32:33.967Z,97.90
2019-05-05T05:35:03.674Z,98.20
2019-05-05T05:37:34.281Z,99.30
2019-05-05T05:40:10.593Z,99.60
2019-05-05T05:42:39.156Z,99.90
2019-05-05T05:45:09.531Z,99.30
2019-05-05T05:47:58.649Z,99.10
2019-05-05T05:50:38.110Z,98.50
2019-05-05T05:53:05.899Z,99.90
2019-05-05T05:55:34.487Z,99.70
2019-05-05T05:58:04.840Z,99.70
2019-05-05T06:00:34.400Z,98.50
2019-05-05T06:03:03.954Z,99.10
2019-05-05T06:05:34.317Z,98.40
2019-05-05T06:08:04.746Z,99.70
2019-05-05T06:10:33.910Z,99.40
2019-05-05T06:13:03.909Z,98.60
2019-05-05T06:15:33.593Z,96.30
2019-05-05T06:18:01.048Z,97.00
2019-05-05T06:20:29.626Z,97.50
2019-05-05T06:22:58.216Z,99.10
2019-05-05T06:25:26.955Z,99.80
2019-05-05T06:27:55.702Z,99.20
2019-05-05T06:30:24.558Z,98.00
2019-05-05T06:32:54.470Z,98.70
2019-05-05T06:35:24.504Z,96.70
2019-05-05T06:37:54.234Z,97.40
2019-05-05T06:40:30.665Z,97.40
2019-05-05T06:43:16.047Z,97.40
2019-05-05T06:45:46.271Z,96.00
2019-05-05T06:48:14.820Z,96.80
2019-05-05T06:50:43.801Z,97.50
2019-05-05T06:53:13.576Z,98.30
2019-05-05T06:55:44.305Z,99.60
2019-05-05T06:58:13.671Z,97.70
2019-05-05T07:00:44.127Z,97.70
2019-05-05T07:03:13.895Z,97.30
2019-05-05T07:05:43.778Z,96.10
2019-05-05T07:08:13.867Z,97.60
2019-05-05T07:10:44.428Z,98.40
2019-05-05T07:13:13.962Z,98.40
2019-05-05T07:15:43.738Z,98.40
2019-05-05T07:18:14.233Z,98.10
2019-05-05T07:20:44.048Z,96.60
2019-05-05T07:23:14.535Z,95.70
2019-05-05T07:25:45.876Z,95.70
2019-05-05T07:28:14.685Z,95.30
2019-05-05T07:30:44.272Z,95.70
2019-05-05T07:33:12.190Z,97.60
2019-05-05T07:35:55.389Z,96.20
2019-05-05T07:38:13.861Z,97.10
2019-05-05T07:40:43.943Z,97.00
2019-05-05T07:43:14.503Z,96.50
2019-05-05T07:45:44.610Z,94.40
2019-05-05T07:48:13.886Z,95.80
2019-05-05T07:50:43.649Z,95.30
2019-05-05T07:53:14.851Z,95.60
2019-05-05T07:55:40.709Z,95.90
2019-05-05T07:58:09.290Z,95.30
2019-05-05T08:00:37.892Z,93.70
2019-05-05T08:03:06.607Z,94.40
2019-05-05T08:05:35.338Z,93.90
2019-05-05T08:08:04.606Z,92.70
2019-05-05T08:10:34.363Z,93.10
2019-05-05T08:13:02.060Z,95.30
2019-05-05T08:15:30.653Z,95.40
2019-05-05T08:18:00.849Z,94.60
2019-05-05T08:20:31.087Z,93.50
2019-05-05T08:22:59.682Z,94.50
2019-05-05T08:25:40.000Z,92.00
2019-05-05T08:28:23.765Z,94.00
2019-05-05T08:30:54.572Z,93.10
2019-05-05T08:33:24.147Z,92.20
2019-05-05T08:35:54.000Z,94.90
2019-05-05T08:38:21.429Z,93.20
2019-05-05T08:40:50.266Z,94.30
2019-05-05T08:43:18.814Z,93.20
2019-05-05T08:45:47.472Z,93.60
2019-05-05T08:48:16.062Z,94.10
2019-05-05T08:50:45.089Z,93.90
2019-05-05T08:53:13.925Z,95.10
2019-05-05T08:55:44.256Z,95.40
2019-05-05T08:58:14.644Z,95.00
2019-05-05T09:00:44.447Z,94.00
2019-05-05T09:03:13.836Z,92.80
2019-05-05T09:05:43.706Z,92.00
2019-05-05T09:08:13.850Z,93.30
2019-05-05T09:10:44.578Z,92.00
2019-05-05T09:13:14.260Z,91.70
2019-05-05T09:15:44.352Z,91.20
2019-05-05T09:18:14.149Z,92.00
2019-05-05T09:20:44.577Z,91.40
2019-05-05T09:23:14.761Z,92.00
2019-05-05T09:25:45.218Z,92.50
2019-05-05T09:28:18.353Z,92.70
2019-05-05T09:30:48.585Z,91.70
2019-05-05T09:33:18.348Z,91.20
2019-05-05T09:35:47.398Z,91.60
2019-05-05T09:38:16.915Z,88.80
2019-05-05T09:40:45.600Z,90.90
2019-05-05T09:43:14.916Z,90.50
2019-05-05T09:45:44.120Z,90.20
2019-05-05T09:48:13.899Z,90.70
2019-05-05T09:50:43.749Z,90.40
2019-05-05T09:53:14.540Z,90.40
2019-05-05T09:55:44.320Z,90.20
2019-05-05T09:58:13.835Z,92.80
2019-05-05T10:00:44.010Z,92.20
2019-05-05T10:03:14.307Z,93.00
2019-05-05T10:05:43.211Z,92.60
2019-05-05T10:08:14.110Z,92.20
2019-05-05T10:10:44.056Z,91.10
2019-05-05T10:13:14.684Z,91.50
2019-05-05T10:15:44.296Z,90.90
2019-05-05T10:18:14.064Z,89.30
2019-05-05T10:20:43.009Z,90.40
2019-05-05T10:23:11.615Z,89.70
2019-05-05T10:25:41.862Z,88.50
2019-05-05T10:28:10.555Z,86.10
2019-05-05T10:30:39.176Z,81.30
2019-05-05T10:33:07.902Z,75.30
2019-05-05T10:35:36.542Z,75.20
2019-05-05T10:38:05.210Z,71.10
2019-05-05T10:40:36.530Z,75.10
2019-05-05T10:43:05.613Z,70.90
2019-05-05T10:45:34.341Z,69.80
2019-05-05T10:48:04.121Z,69.80
2019-05-05T10:50:34.124Z,72.60
2019-05-05T10:53:04.660Z,73.20
2019-05-05T10:55:34.690Z,70.70
2019-05-05T10:58:03.599Z,74.10
2019-05-05T11:00:44.721Z,76.40
2019-05-05T11:03:14.861Z,73.60
2019-05-05T11:05:44.998Z,75.00
2019-05-05T11:08:13.918Z,72.90
2019-05-05T11:10:44.629Z,70.90
2019-05-05T11:13:13.025Z,75.60
2019-05-05T11:15:43.986Z,73.50
2019-05-05T11:18:14.422Z,72.40
2019-05-05T11:20:44.435Z,73.70
2019-05-05T11:23:14.729Z,69.60
2019-05-05T11:25:44.208Z,64.90
2019-05-05T11:28:13.273Z,65.00
2019-05-05T11:30:45.226Z,63.60
2019-05-05T11:33:30.813Z,62.70
2019-05-05T11:36:04.520Z,57.00
2019-05-05T11:38:33.919Z,59.00
2019-05-05T11:41:01.859Z,60.50
2019-05-05T11:43:30.454Z,58.80
2019-05-05T11:45:59.014Z,56.20
2019-05-05T11:48:27.649Z,56.70
2019-05-05T11:50:56.438Z,57.40
2019-05-05T11:53:25.255Z,57.00
2019-05-05T11:55:55.007Z,56.20
2019-05-05T11:58:24.961Z,56.30
2019-05-05T12:00:54.504Z,60.00
2019-05-05T12:03:23.591Z,55.80
2019-05-05T12:05:52.250Z,58.50
2019-05-05T12:08:20.881Z,58.00
2019-05-05T12:10:51.111Z,56.40
2019-05-05T12:13:19.780Z,54.60
2019-05-05T12:15:50.006Z,53.10
2019-05-05T12:18:18.607Z,53.30
2019-05-05T12:20:47.194Z,53.60
2019-05-05T12:23:15.747Z,52.80
2019-05-05T12:25:54.990Z,53.60
2019-05-05T12:28:39.890Z,53.10
2019-05-05T12:31:22.133Z,52.40
2019-05-05T12:33:50.738Z,53.30
2019-05-05T12:36:19.485Z,52.00
2019-05-05T12:38:48.283Z,53.50
2019-05-05T12:41:16.909Z,48.80
2019-05-05T12:43:45.646Z,49.50
2019-05-05T12:46:16.006Z,51.80
2019-05-05T12:48:46.238Z,51.60
2019-05-05T12:51:14.946Z,48.30
2019-05-05T12:53:43.594Z,51.30
2019-05-05T12:56:14.461Z,52.30
2019-05-05T12:58:44.018Z,50.60
2019-05-05T13:01:14.531Z,48.40
2019-05-05T13:03:43.793Z,50.80
2019-05-05T13:06:14.463Z,53.70
2019-05-05T13:08:44.519Z,51.80
2019-05-05T13:11:13.238Z,50.00
2019-05-05T13:13:43.820Z,47.90
2019-05-05T13:16:13.638Z,49.20
2019-05-05T13:18:42.619Z,48.40
2019-05-05T13:21:28.360Z,48.90
2019-05-05T13:23:58.593Z,50.40
2019-05-05T13:26:31.650Z,50.00
2019-05-05T13:29:00.275Z,55.00
2019-05-05T13:31:28.951Z,51.80
2019-05-05T13:33:57.582Z,54.20
2019-05-05T13:36:26.202Z,54.40
2019-05-05T13:38:54.761Z,55.20
2019-05-05T13:41:23.560Z,54.60
2019-05-05T13:43:53.958Z,53.90
2019-05-05T13:46:30.436Z,54.70
2019-05-05T13:49:17.478Z,55.90
2019-05-05T13:51:46.094Z,55.00
2019-05-05T13:54:14.793Z,55.40
2019-05-05T13:56:44.135Z,56.80
2019-05-05T13:59:14.121Z,54.90
2019-05-05T14:01:44.848Z,55.40
2019-05-05T14:04:13.560Z,58.00
2019-05-05T14:06:44.460Z,57.40
2019-05-05T14:09:13.839Z,56.90
2019-05-05T14:11:44.428Z,56.20
2019-05-05T14:14:13.829Z,56.00
2019-05-05T14:16:44.623Z,58.10
2019-05-05T14:19:14.673Z,59.10
2019-05-05T14:21:44.579Z,58.30
2019-05-05T14:24:27.454Z,59.20
2019-05-05T14:26:56.109Z,59.70
2019-05-05T14:29:42.809Z,57.50
2019-05-05T14:32:13.513Z,58.80
2019-05-05T14:34:49.902Z,56.20
2019-05-05T14:37:34.066Z,56.50
2019-05-05T14:40:04.631Z,58.00
2019-05-05T14:42:34.168Z,59.10
2019-05-05T14:45:04.854Z,56.30
2019-05-05T14:47:33.650Z,56.90
2019-05-05T14:50:04.550Z,57.90
2019-05-05T14:52:32.901Z,60.20
2019-05-05T14:55:03.748Z,58.90
2019-05-05T14:57:33.451Z,58.90
2019-05-05T15:00:02.027Z,58.20
2019-05-05T15:02:31.190Z,58.20
2019-05-05T15:05:03.356Z,60.90
2019-05-05T15:07:41.873Z,59.50
2019-05-05T15:10:18.121Z,58.60
2019-05-05T15:12:51.365Z,59.10
2019-05-05T15:15:20.058Z,57.10
2019-05-05T15:17:48.657Z,57.60
2019-05-05T15:20:17.269Z,58.30
2019-05-05T15:22:45.859Z,58.00
2019-05-05T15:25:14.576Z,57.40
2019-05-05T15:27:45.088Z,57.40
2019-05-05T15:30:14.443Z,58.30
2019-05-05T15:32:43.799Z,56.10
2019-05-05T15:35:11.823Z,57.40
2019-05-05T15:37:40.404Z,58.90
2019-05-05T15:40:09.101Z,58.60
2019-05-05T15:42:37.695Z,58.10
2019-05-05T15:45:06.619Z,58.80
2019-05-05T15:47:35.202Z,56.80
2019-05-05T15:50:06.529Z,55.50
2019-05-05T15:52:35.319Z,56.10
2019-05-05T15:55:06.216Z,55.00
2019-05-05T15:57:34.859Z,56.80
2019-05-05T16:00:05.345Z,56.50
2019-05-05T16:02:35.977Z,55.40
2019-05-05T16:05:07.055Z,56.30
2019-05-05T16:07:35.771Z,56.40
2019-05-05T16:10:08.723Z,54.50
2019-05-05T16:12:39.732Z,55.80
2019-05-05T16:15:24.218Z,55.40
2019-05-05T16:17:58.005Z,55.80
2019-05-05T16:20:28.342Z,55.50
2019-05-05T16:23:14.517Z,56.00
2019-05-05T16:25:46.320Z,56.50
2019-05-05T16:28:14.548Z,56.40
2019-05-05T16:30:44.515Z,54.50
2019-05-05T16:33:13.740Z,57.10
2019-05-05T16:35:43.773Z,54.30
2019-05-05T16:38:14.706Z,54.90
2019-05-05T16:40:44.460Z,55.70
2019-05-05T16:43:14.073Z,56.50
2019-05-05T16:45:44.445Z,56.30
2019-05-05T16:48:13.368Z,54.90
2019-05-05T16:50:44.173Z,55.10
2019-05-05T16:53:30.751Z,55.20
2019-05-05T16:55:59.364Z,56.90
2019-05-05T16:58:27.950Z,57.00
2019-05-05T17:00:56.505Z,59.20
2019-05-05T17:03:25.097Z,59.50
2019-05-05T17:05:54.638Z,59.70
2019-05-05T17:08:24.514Z,61.20
2019-05-05T17:10:53.292Z,58.90
2019-05-05T17:13:41.671Z,58.40
2019-05-05T17:16:13.460Z,59.80
2019-05-05T17:18:44.780Z,61.40
2019-05-05T17:21:18.014Z,59.50
2019-05-05T17:23:46.600Z,59.10
2019-05-05T17:26:15.221Z,59.70
2019-05-05T17:28:44.386Z,61.30
2019-05-05T17:31:13.277Z,65.00
2019-05-05T17:33:44.038Z,62.70
2019-05-05T17:36:14.006Z,63.10
2019-05-05T17:38:43.712Z,66.10
2019-05-05T17:41:34.041Z,66.10
2019-05-05T17:44:07.355Z,67.70
2019-05-05T17:46:46.710Z,68.40
2019-05-05T17:49:16.263Z,68.50
2019-05-05T17:51:45.725Z,68.00
2019-05-05T17:54:20.840Z,69.10
2019-05-05T17:56:52.482Z,69.50
2019-05-05T17:59:19.908Z,69.70
2019-05-05T18:01:48.461Z,73.10
2019-05-05T18:04:17.082Z,72.70
2019-05-05T18:06:50.213Z,73.90
2019-05-05T18:09:20.437Z,74.80
2019-05-05T18:11:59.625Z,79.30
2019-05-05T18:14:29.858Z,80.80
2019-05-05T18:16:58.624Z,80.00
2019-05-05T18:19:27.202Z,81.00
2019-05-05T18:21:55.891Z,78.00
2019-05-05T18:24:24.500Z,79.10
2019-05-05T18:26:53.691Z,83.80
2019-05-05T18:29:24.282Z,84.10
2019-05-05T18:31:53.543Z,85.10
2019-05-05T18:34:23.427Z,89.30
2019-05-05T18:36:51.029Z,90.10
2019-05-05T18:39:19.582Z,87.40
2019-05-05T18:41:58.961Z,88.60
2019-05-05T18:44:37.439Z,89.30
2019-05-05T18:47:13.015Z,89.90
2019-05-05T18:49:40.716Z,88.30
2019-05-05T18:52:09.546Z,87.20
2019-05-05T18:54:39.073Z,89.50
2019-05-05T18:57:08.965Z,91.90
2019-05-05T18:59:38.589Z,92.40
2019-05-05T19:02:09.063Z,92.30
2019-05-05T19:04:55.654Z,90.80
2019-05-05T19:07:29.049Z,92.00
2019-05-05T19:09:57.733Z,91.50
2019-05-05T19:12:26.335Z,91.10
2019-05-05T19:14:55.098Z,91.70
2019-05-05T19:17:23.825Z,91.00
2019-05-05T19:19:54.877Z,90.40
2019-05-05T19:22:23.934Z,90.70
2019-05-05T19:24:54.736Z,92.30
2019-05-05T19:27:24.065Z,93.30
2019-05-05T19:29:53.666Z,95.50
2019-05-05T19:32:22.325Z,96.40
2019-05-05T19:34:51.067Z,94.10
2019-05-05T19:37:19.641Z,94.10
2019-05-05T19:39:48.242Z,93.90
2019-05-05T19:42:16.821Z,91.90
2019-05-05T19:44:45.529Z,92.10
2019-05-05T19:47:18.578Z,94.00
2019-05-05T19:49:48.842Z,94.60
2019-05-05T19:52:17.456Z,94.40
2019-05-05T19:54:47.564Z,94.30
2019-05-05T19:57:16.359Z,92.90
2019-05-05T19:59:44.924Z,93.20
2019-05-05T20:02:13.566Z,93.80
2019-05-05T20:04:44.362Z,95.00
2019-05-05T20:07:13.937Z,94.30
2019-05-05T20:09:43.626Z,95.00
2019-05-05T20:12:14.633Z,95.10
2019-05-05T20:14:43.604Z,95.50
2019-05-05T20:17:19.761Z,95.10
2019-05-05T20:19:48.352Z,95.30
2019-05-05T20:22:16.921Z,96.00
2019-05-05T20:24:45.521Z,95.20
2019-05-05T20:27:14.381Z,95.50
2019-05-05T20:29:42.969Z,95.60
2019-05-05T20:32:13.751Z,95.80
2019-05-05T20:34:49.492Z,95.60
2019-05-05T20:37:25.690Z,93.60
2019-05-05T20:39:54.618Z,93.10
2019-05-05T20:42:23.210Z,94.70
2019-05-05T20:44:51.845Z,95.40
2019-05-05T20:47:20.430Z,95.30
2019-05-05T20:49:49.115Z,95.80
2019-05-05T20:52:17.689Z,95.80
2019-05-05T20:54:46.279Z,95.90
2019-05-05T20:57:15.048Z,95.90
2019-05-05T20:59:44.555Z,96.30
2019-05-05T21:02:13.707Z,95.70
2019-05-05T21:04:44.419Z,95.60
2019-05-05T21:07:14.035Z,94.70
2019-05-05T21:09:42.903Z,95.20
2019-05-05T21:12:13.698Z,95.20
2019-05-05T21:14:41.766Z,93.70
2019-05-05T21:17:10.366Z,94.50
2019-05-05T21:19:38.929Z,95.60
2019-05-05T21:22:18.189Z,94.70
2019-05-05T21:24:46.931Z,94.90
2019-05-05T21:27:15.478Z,95.10
2019-05-05T21:29:44.061Z,95.70
2019-05-05T21:32:13.811Z,96.80
2019-05-05T21:34:44.433Z,96.90
2019-05-05T21:37:14.132Z,96.00
2019-05-05T21:39:45.288Z,96.70
2019-05-05T21:42:14.045Z,97.30
2019-05-05T21:44:44.278Z,97.80
2019-05-05T21:47:14.194Z,97.80
2019-05-05T21:49:43.076Z,97.50
2019-05-05T21:52:15.999Z,97.20
2019-05-05T21:54:46.378Z,97.50
2019-05-05T21:57:19.510Z,97.80
2019-05-05T21:59:55.479Z,98.10
2019-05-05T22:02:18.528Z,98.50
2019-05-05T22:04:47.092Z,98.00
2019-05-05T22:07:16.449Z,98.40
2019-05-05T22:09:44.250Z,98.50
2019-05-05T22:12:13.935Z,97.70
2019-05-05T22:14:43.948Z,98.10
2019-05-05T22:17:14.571Z,98.20
2019-05-05T22:19:44.801Z,99.20
2019-05-05T22:22:14.620Z,98.90
2019-05-05T22:24:44.398Z,98.70
2019-05-05T22:27:13.193Z,98.50
2019-05-05T22:29:41.929Z,98.80
2019-05-05T22:32:10.735Z,98.90
2019-05-05T22:34:39.437Z,99.30
2019-05-05T22:37:09.710Z,99.20
2019-05-05T22:39:38.485Z,99.50
2019-05-05T22:42:07.192Z,98.30
2019-05-05T22:44:35.889Z,98.10
2019-05-05T22:47:04.811Z,98.60
2019-05-05T22:49:33.625Z,98.20
2019-05-05T22:52:03.825Z,98.10
2019-05-05T22:54:33.665Z,98.60
2019-05-05T22:57:04.445Z,98.70
2019-05-05T22:59:32.777Z,99.40
2019-05-05T23:02:03.801Z,98.00
2019-05-05T23:04:34.953Z,98.30
2019-05-05T23:07:06.134Z,99.50
2019-05-05T23:09:34.846Z,99.50
2019-05-05T23:12:04.193Z,99.10
2019-05-05T23:14:34.251Z,98.50
2019-05-05T23:17:07.724Z,98.10
2019-05-05T23:19:40.750Z,98.50
2019-05-05T23:22:27.719Z,98.30
2019-05-05T23:25:07.409Z,98.90
2019-05-05T23:27:49.153Z,98.80
2019-05-05T23:30:20.947Z,98.70
2019-05-05T23:32:51.502Z,98.10
2019-05-05T23:35:20.194Z,97.90
2019-05-05T23:37:48.898Z,98.40
2019-05-05T23:40:24.393Z,98.90
2019-05-05T23:42:54.132Z,99.10
2019-05-05T23:45:24.894Z,99.50
2019-05-05T23:47:54.461Z,99.60
2019-05-05T23:50:24.129Z,99.70
2019-05-05T23:52:54.567Z,99.90
2019-05-05T23:55:24.080Z,99.90
2019-05-05T23:57:54.806Z,99.90
